Time;durP1;ratioP1;P1;durP2;ratioP2;P2;SDS_P1;SDS_P2;PMS_P1;PMS_P2;Temp;Humidity;BMP_temperature;BMP_pressure;BME280_temperature;BME280_humidity;BME280_pressure;Samples;Min_cycle;Max_cycle;Signal;HPM_P1;HPM_P2
2023/05/01 00:00:46;;;;;;;24.98;18.57;;;27.20;99.90;;;;;;1894649;74;21174;-77
2023/05/01 00:03:18;;;;;;;28.07;19.32;;;27.20;99.90;;;;;;1913199;75;21139;-76
2023/05/01 00:05:49;;;;;;;28.65;21.00;;;27.20;99.90;;;;;;1891620;75;21184;-76
2023/05/01 00:08:21;;;;;;;27.75;21.40;;;27.20;99.90;;;;;;1896496;74;21142;-80
2023/05/01 00:10:52;;;;;;;27.87;19.65;;;27.30;99.90;;;;;;1890381;75;21080;-81
2023/05/01 00:13:23;;;;;;;26.55;19.62;;;27.30;99.90;;;;;;1900423;75;21116;-80
2023/05/01 00:15:55;;;;;;;19.90;14.83;;;27.30;99.90;;;;;;1868679;76;21095;-82
2023/05/01 00:18:27;;;;;;;18.90;14.18;;;27.40;99.90;;;;;;1842962;77;21236;-78
2023/05/01 00:20:58;;;;;;;17.27;13.75;;;27.40;99.90;;;;;;1883188;75;21084;-79
2023/05/01 00:23:29;;;;;;;24.90;15.43;;;27.50;99.90;;;;;;1897325;75;21115;-78
2023/05/01 00:26:01;;;;;;;17.27;13.70;;;27.50;99.90;;;;;;1826281;77;21097;-79
2023/05/01 00:28:32;;;;;;;20.62;14.63;;;27.60;99.90;;;;;;1898657;75;21221;-78
2023/05/01 00:31:03;;;;;;;19.73;14.83;;;27.60;99.90;;;;;;1882456;74;21293;-79
2023/05/01 00:33:35;;;;;;;22.80;14.85;;;27.60;99.90;;;;;;1894190;74;21677;-79
2023/05/01 00:36:06;;;;;;;18.62;14.87;;;27.70;99.90;;;;;;1907055;74;21189;-79
2023/05/01 00:38:38;;;;;;;21.77;13.68;;;27.70;99.90;;;;;;1915649;74;21216;-80
2023/05/01 00:41:09;;;;;;;18.65;14.87;;;27.70;99.90;;;;;;1899101;74;21163;-84
2023/05/01 00:43:45;;;;;;;21.60;14.80;;;27.80;99.90;;;;;;1884333;74;21155;-83
2023/05/01 00:46:17;;;;;;;17.35;13.18;;;27.80;99.90;;;;;;1892174;75;21075;-84
2023/05/01 00:48:48;;;;;;;17.42;12.70;;;27.90;99.70;;;;;;1858116;76;21162;-84
2023/05/01 00:51:22;;;;;;;16.93;11.08;;;27.90;99.60;;;;;;1892628;75;21634;-84
2023/05/01 00:53:56;;;;;;;15.18;11.00;;;27.90;99.30;;;;;;1846648;76;21122;-83
2023/05/01 00:56:29;;;;;;;13.05;9.88;;;28.00;99.20;;;;;;1878029;75;21232;-84
2023/05/01 00:59:01;;;;;;;13.65;10.32;;;28.00;98.70;;;;;;1900794;74;21626;-85
2023/05/01 01:01:33;;;;;;;14.47;9.60;;;28.10;98.60;;;;;;1825347;77;21591;-85
2023/05/01 01:04:09;;;;;;;13.48;8.53;;;28.10;98.10;;;;;;1888442;75;21160;-84
2023/05/01 01:06:56;;;;;;;12.25;8.93;;;28.20;98.00;;;;;;1894583;74;21211;-73
2023/05/01 01:09:36;;;;;;;13.20;8.70;;;28.30;97.30;;;;;;1877751;74;21212;-74
2023/05/01 01:12:30;;;;;;;11.80;8.98;;;28.30;97.00;;;;;;1885842;74;21602;-76
2023/05/01 01:15:33;;;;;;;16.65;8.58;;;28.40;97.00;;;;;;1877334;74;21195;-77
2023/05/01 01:18:10;;;;;;;10.38;7.47;;;28.50;97.20;;;;;;1887611;74;21164;-76
2023/05/01 01:21:05;;;;;;;9.65;7.15;;;28.60;96.10;;;;;;1821051;77;21462;-75
2023/05/01 01:24:10;;;;;;;8.73;6.58;;;28.60;95.60;;;;;;1881977;75;21164;-74
2023/05/01 01:26:59;;;;;;;9.23;6.62;;;28.80;95.10;;;;;;1874210;74;21368;-75
2023/05/01 01:29:53;;;;;;;8.35;6.80;;;28.90;94.90;;;;;;1824714;77;21156;-75
2023/05/01 01:32:53;;;;;;;10.08;6.65;;;29.00;94.70;;;;;;1881608;74;21154;-75
2023/05/01 01:35:30;;;;;;;8.03;6.37;;;29.10;94.30;;;;;;1885000;74;21190;-74
2023/05/01 01:38:14;;;;;;;;;;;29.20;94.30;;;;;;1890347;74;21732;-75
2023/05/01 01:40:59;;;;;;;11.68;6.60;;;29.20;94.10;;;;;;1878279;74;20399;-76
2023/05/01 01:43:33;;;;;;;9.43;6.85;;;29.30;93.80;;;;;;1884111;74;21181;-76
2023/05/01 01:46:07;;;;;;;10.50;7.28;;;29.40;93.40;;;;;;1888035;74;21135;-76
2023/05/01 01:48:41;;;;;;;8.10;6.55;;;29.50;93.40;;;;;;1887914;74;21208;-76
2023/05/01 01:51:18;;;;;;;10.48;7.22;;;29.50;93.50;;;;;;1878049;75;21127;-74
2023/05/01 01:53:52;;;;;;;9.20;7.28;;;29.60;93.80;;;;;;1880753;74;21213;-73
2023/05/01 01:56:25;;;;;;;11.90;7.80;;;29.70;93.70;;;;;;1889770;74;21163;-75
2023/05/01 01:58:57;;;;;;;9.58;6.92;;;29.70;93.30;;;;;;1882760;74;21176;-74
2023/05/01 02:01:29;;;;;;;9.70;7.00;;;29.80;93.10;;;;;;1882910;74;21775;-76
2023/05/01 02:04:02;;;;;;;11.97;7.47;;;29.90;93.20;;;;;;1885788;74;21125;-74
2023/05/01 02:06:35;;;;;;;9.65;6.78;;;29.90;93.10;;;;;;1895845;74;21280;-76
2023/05/01 02:09:08;;;;;;;9.93;6.85;;;30.00;93.30;;;;;;1883521;74;21132;-73
2023/05/01 02:11:41;;;;;;;10.35;7.03;;;30.00;93.00;;;;;;1886142;74;21130;-73
2023/05/01 02:14:13;;;;;;;10.08;7.30;;;30.10;92.90;;;;;;1890579;74;21613;-75
2023/05/01 02:16:45;;;;;;;10.03;7.78;;;30.30;92.90;;;;;;1889382;75;21176;-75
2023/05/01 02:19:18;;;;;;;12.23;7.45;;;30.30;92.70;;;;;;1891931;75;21168;-76
2023/05/01 02:21:50;;;;;;;11.40;7.78;;;30.50;92.50;;;;;;1889888;74;21700;-74
2023/05/01 02:24:23;;;;;;;14.53;8.33;;;30.60;92.40;;;;;;1881685;75;21080;-74
2023/05/01 02:27:05;;;;;;;11.90;8.38;;;30.60;92.40;;;;;;1895131;75;21712;-75
2023/05/01 02:29:36;;;;;;;9.45;7.37;;;30.70;92.30;;;;;;1887676;74;21543;-73
2023/05/01 02:32:07;;;;;;;9.28;6.53;;;30.80;91.60;;;;;;1892390;74;21124;-74
2023/05/01 02:34:39;;;;;;;8.65;6.58;;;30.90;91.20;;;;;;1892105;74;21056;-73
2023/05/01 02:37:11;;;;;;;8.25;6.55;;;31.00;91.30;;;;;;1885614;75;21706;-74
2023/05/01 02:39:43;;;;;;;8.85;7.08;;;31.10;90.90;;;;;;1883631;75;21130;-74
2023/05/01 02:42:28;;;;;;;9.10;7.62;;;31.20;90.70;;;;;;1897162;75;21228;-73
2023/05/01 02:45:02;;;;;;;11.03;7.10;;;31.30;90.70;;;;;;1885732;75;21144;-74
2023/05/01 02:47:48;;;;;;;9.20;6.40;;;31.40;90.80;;;;;;1890046;75;21071;-74
2023/05/01 02:50:42;;;;;;;14.25;6.50;;;31.40;89.60;;;;;;1892042;75;21640;-74
2023/05/01 02:53:20;;;;;;;9.95;7.17;;;31.50;90.30;;;;;;1884021;75;21234;-75
2023/05/01 02:55:52;;;;;;;7.90;6.50;;;31.70;89.70;;;;;;1897749;75;21142;-74
2023/05/01 02:58:25;;;;;;;10.10;6.78;;;31.70;88.80;;;;;;1895457;74;21097;-73
2023/05/01 03:00:56;;;;;;;8.05;6.20;;;31.80;88.50;;;;;;1886796;75;21484;-77
2023/05/01 03:03:28;;;;;;;9.18;6.80;;;31.90;88.30;;;;;;1878748;75;21107;-75
2023/05/01 03:05:59;;;;;;;8.63;7.28;;;32.00;88.00;;;;;;1887171;75;21159;-75
2023/05/01 03:08:31;;;;;;;10.72;6.95;;;32.10;88.00;;;;;;1878803;75;21616;-71
2023/05/01 03:11:06;;;;;;;8.23;6.37;;;32.20;87.50;;;;;;1880797;76;21107;-74
2023/05/01 03:13:38;;;;;;;9.20;6.72;;;32.30;87.50;;;;;;1878648;76;21154;-72
2023/05/01 03:16:09;;;;;;;11.03;7.10;;;32.40;87.00;;;;;;1804611;79;21226;-73
2023/05/01 03:18:41;;;;;;;10.38;7.12;;;32.50;87.00;;;;;;1804800;79;21146;-75
2023/05/01 03:21:12;;;;;;;11.22;7.40;;;32.50;87.90;;;;;;1791385;79;21208;-75
2023/05/01 03:23:43;;;;;;;9.93;7.20;;;32.60;87.00;;;;;;1873103;76;21666;-74
2023/05/01 03:26:14;;;;;;;10.10;7.10;;;32.70;87.00;;;;;;1880516;76;21664;-72
2023/05/01 03:28:46;;;;;;;10.55;7.85;;;32.70;86.60;;;;;;1811470;79;21209;-75
2023/05/01 03:31:18;;;;;;;10.00;7.20;;;32.80;86.30;;;;;;1876352;76;21122;-73
2023/05/01 03:33:50;;;;;;;10.10;7.08;;;32.80;86.50;;;;;;1881124;76;21154;-74
2023/05/01 03:36:26;;;;;;;9.03;6.83;;;32.90;86.00;;;;;;1806896;78;21210;-74
2023/05/01 03:38:58;;;;;;;8.60;6.62;;;33.00;85.10;;;;;;1875407;76;21168;-74
2023/05/01 03:41:29;;;;;;;11.33;7.25;;;33.00;84.40;;;;;;1872983;76;21119;-74
2023/05/01 03:44:01;;;;;;;13.20;7.75;;;33.00;84.30;;;;;;1881454;76;21135;-72
2023/05/01 03:46:33;;;;;;;12.07;7.53;;;33.00;83.90;;;;;;1810531;79;21291;-73
2023/05/01 03:49:05;;;;;;;8.35;6.72;;;33.10;84.40;;;;;;1839178;77;21194;-73
2023/05/01 03:51:36;;;;;;;10.38;7.37;;;33.20;83.40;;;;;;1879143;76;21141;-72
2023/05/01 03:54:07;;;;;;;10.63;7.10;;;33.20;84.10;;;;;;1872075;76;21878;-74
2023/05/01 03:56:39;;;;;;;9.35;7.05;;;33.30;83.70;;;;;;1871822;76;21163;-73
2023/05/01 03:59:11;;;;;;;7.70;6.92;;;33.40;82.90;;;;;;1871493;76;21103;-73
2023/05/01 04:01:43;;;;;;;9.05;7.08;;;33.40;82.30;;;;;;1803429;79;21205;-74
2023/05/01 04:04:14;;;;;;;9.48;7.53;;;33.40;82.30;;;;;;1880656;76;21184;-73
2023/05/01 04:06:47;;;;;;;10.65;7.40;;;33.50;82.50;;;;;;1862424;76;21083;-77
2023/05/01 04:09:18;;;;;;;8.43;6.97;;;33.40;81.30;;;;;;1886195;75;21236;-75
2023/05/01 04:11:49;;;;;;;9.90;7.20;;;33.40;80.40;;;;;;1885253;75;21166;-75
2023/05/01 04:14:21;;;;;;;8.55;7.30;;;33.50;79.90;;;;;;1882456;76;21159;-76
2023/05/01 04:16:53;;;;;;;8.53;7.35;;;33.50;81.00;;;;;;1891105;75;21405;-77
2023/05/01 04:19:24;;;;;;;9.80;7.60;;;33.50;81.20;;;;;;1884915;76;21151;-79
2023/05/01 04:22:00;;;;;;;10.82;7.65;;;33.60;80.30;;;;;;1794610;79;21147;-76
2023/05/01 04:24:42;;;;;;;11.50;7.50;;;33.70;79.10;;;;;;1795826;79;21493;-75
2023/05/01 04:27:14;;;;;;;8.70;7.35;;;33.80;79.40;;;;;;1780041;79;21667;-75
2023/05/01 04:29:46;;;;;;;13.65;7.15;;;33.80;78.80;;;;;;1794116;79;21178;-74
2023/05/01 04:32:17;;;;;;;10.53;7.42;;;33.80;79.00;;;;;;1783330;79;21341;-74
2023/05/01 04:34:48;;;;;;;8.75;7.75;;;33.80;78.00;;;;;;1788446;79;21172;-75
2023/05/01 04:37:20;;;;;;;11.00;7.60;;;33.80;78.30;;;;;;1803871;79;21245;-74
2023/05/01 04:39:51;;;;;;;8.63;7.30;;;33.80;77.70;;;;;;1800540;78;21808;-73
2023/05/01 04:42:23;;;;;;;9.55;7.40;;;33.80;77.70;;;;;;1800238;78;21216;-75
2023/05/01 04:44:54;;;;;;;9.25;7.00;;;33.80;76.40;;;;;;1803143;79;21257;-73
2023/05/01 04:47:26;;;;;;;9.23;7.40;;;33.80;77.60;;;;;;1860332;75;21123;-74
2023/05/01 04:49:57;;;;;;;9.70;7.78;;;33.90;76.70;;;;;;1895664;75;21158;-75
2023/05/01 04:52:28;;;;;;;9.35;7.05;;;34.00;76.60;;;;;;1886390;75;21180;-73
2023/05/01 04:55:00;;;;;;;10.58;7.87;;;34.00;76.60;;;;;;1883554;75;21162;-75
2023/05/01 04:57:50;;;;;;;9.13;7.17;;;34.10;76.50;;;;;;1883616;75;21602;-76
2023/05/01 05:00:22;;;;;;;7.97;7.05;;;34.20;75.80;;;;;;1849718;76;21669;-76
2023/05/01 05:02:53;;;;;;;16.07;7.20;;;34.20;76.80;;;;;;1864890;76;21079;-74
2023/05/01 05:05:25;;;;;;;8.18;6.78;;;34.30;76.30;;;;;;1864190;76;21236;-73
2023/05/01 05:07:57;;;;;;;9.60;7.12;;;34.30;74.50;;;;;;1865360;76;21182;-75
2023/05/01 05:10:28;;;;;;;10.18;7.50;;;34.30;75.50;;;;;;1880084;76;21143;-73
2023/05/01 05:13:00;;;;;;;7.53;6.72;;;34.30;74.40;;;;;;1859554;77;21159;-75
2023/05/01 05:15:31;;;;;;;8.18;6.58;;;34.30;73.20;;;;;;1862584;76;21609;-72
2023/05/01 05:18:02;;;;;;;9.55;7.75;;;34.30;73.60;;;;;;1863430;76;21139;-73
2023/05/01 05:20:35;;;;;;;11.78;8.10;;;34.30;73.10;;;;;;1876850;76;21169;-75
2023/05/01 05:23:06;;;;;;;9.68;7.05;;;34.40;74.10;;;;;;1866975;76;21177;-75
2023/05/01 05:25:38;;;;;;;9.93;7.47;;;34.40;74.10;;;;;;1857272;76;21139;-73
2023/05/01 05:28:09;;;;;;;9.38;7.00;;;34.50;74.40;;;;;;1864884;76;21627;-74
2023/05/01 05:30:41;;;;;;;7.92;6.95;;;34.50;74.00;;;;;;1872577;76;21220;-74
2023/05/01 05:33:12;;;;;;;8.45;6.55;;;34.60;72.40;;;;;;1867230;77;21639;-72
2023/05/01 05:35:44;;;;;;;9.68;6.80;;;34.50;72.90;;;;;;1879754;75;21787;-74
2023/05/01 05:38:15;;;;;;;10.30;7.17;;;34.50;73.90;;;;;;1859886;76;21603;-74
2023/05/01 05:40:46;;;;;;;9.93;7.08;;;34.60;72.10;;;;;;1864167;76;21193;-74
2023/05/01 05:43:17;;;;;;;10.28;6.92;;;34.60;72.90;;;;;;1857970;76;21584;-76
2023/05/01 05:45:49;;;;;;;9.65;7.10;;;34.70;72.30;;;;;;1872094;76;21180;-75
2023/05/01 05:48:20;;;;;;;8.55;6.78;;;34.70;73.00;;;;;;1868765;77;21230;-74
2023/05/01 05:50:51;;;;;;;10.18;7.10;;;34.60;71.80;;;;;;1880100;76;21523;-73
2023/05/01 05:53:22;;;;;;;12.98;7.15;;;34.60;72.40;;;;;;1861021;76;21607;-76
2023/05/01 05:55:55;;;;;;;10.25;7.30;;;34.60;73.20;;;;;;1859770;76;21439;-75
2023/05/01 05:58:27;;;;;;;9.00;6.62;;;34.60;72.00;;;;;;1865585;76;21170;-74
2023/05/01 06:00:58;;;;;;;9.13;6.75;;;34.60;70.90;;;;;;1886165;75;21080;-75
2023/05/01 06:03:29;;;;;;;9.65;6.62;;;34.70;71.00;;;;;;1889413;75;21586;-75
2023/05/01 06:06:01;;;;;;;7.45;6.22;;;34.70;71.40;;;;;;1888815;75;21202;-73
2023/05/01 06:08:37;;;;;;;8.58;6.95;;;34.70;71.70;;;;;;1892625;76;21093;-74
2023/05/01 06:11:10;;;;;;;9.98;6.70;;;34.70;71.10;;;;;;1889060;75;21195;-75
2023/05/01 06:13:41;;;;;;;8.93;7.15;;;34.60;70.60;;;;;;1846645;77;21481;-73
2023/05/01 06:16:12;;;;;;;9.43;6.78;;;34.60;70.40;;;;;;1879761;76;21114;-74
2023/05/01 06:18:43;;;;;;;9.13;6.78;;;34.60;71.10;;;;;;1873771;76;21609;-75
2023/05/01 06:21:15;;;;;;;7.85;6.30;;;34.60;70.70;;;;;;1879879;76;21923;-73
2023/05/01 06:23:46;;;;;;;9.13;7.22;;;34.60;71.50;;;;;;1868882;76;21173;-75
2023/05/01 06:26:17;;;;;;;7.37;6.03;;;34.60;70.80;;;;;;1881566;76;21541;-74
2023/05/01 06:28:49;;;;;;;9.75;6.35;;;34.50;70.30;;;;;;1815962;77;21238;-74
2023/05/01 06:31:20;;;;;;;9.68;6.42;;;34.50;71.50;;;;;;1875559;75;21868;-74
2023/05/01 06:33:51;;;;;;;9.10;6.40;;;34.40;70.40;;;;;;1882883;76;21192;-73
2023/05/01 06:36:22;;;;;;;9.03;7.00;;;34.40;70.00;;;;;;1876527;76;21566;-74
2023/05/01 06:38:54;;;;;;;9.78;6.80;;;34.40;70.50;;;;;;1880205;76;21140;-75
2023/05/01 06:41:26;;;;;;;8.95;6.40;;;34.40;70.70;;;;;;1873024;75;21150;-72
2023/05/01 06:43:58;;;;;;;9.23;6.33;;;34.40;70.60;;;;;;1881074;76;21073;-71
2023/05/01 06:46:29;;;;;;;10.18;7.12;;;34.40;70.40;;;;;;1875783;76;21149;-75
2023/05/01 06:49:01;;;;;;;9.23;6.40;;;34.40;70.50;;;;;;1879420;76;21136;-74
2023/05/01 06:51:32;;;;;;;7.72;6.33;;;34.40;70.70;;;;;;1880221;75;21602;-75
2023/05/01 06:54:03;;;;;;;8.70;6.53;;;34.40;69.80;;;;;;1846912;77;21525;-71
2023/05/01 06:56:34;;;;;;;8.15;6.75;;;34.50;69.40;;;;;;1873803;76;21147;-74
2023/05/01 06:59:05;;;;;;;9.23;6.78;;;34.50;69.70;;;;;;1878207;76;21165;-74
2023/05/01 07:01:36;;;;;;;9.60;6.97;;;34.50;68.80;;;;;;1874286;76;21149;-78
2023/05/01 07:04:08;;;;;;;8.75;6.72;;;34.50;70.10;;;;;;1879015;76;21132;-74
2023/05/01 07:06:39;;;;;;;9.58;6.97;;;34.50;68.40;;;;;;1880087;76;21683;-72
2023/05/01 07:09:10;;;;;;;7.55;6.75;;;34.40;70.40;;;;;;1881003;76;21232;-79
2023/05/01 07:11:45;;;;;;;7.92;5.95;;;34.40;70.10;;;;;;1880303;76;21200;-76
2023/05/01 07:14:17;;;;;;;9.60;7.10;;;34.40;69.50;;;;;;1874290;76;21194;-75
2023/05/01 07:16:48;;;;;;;9.78;6.80;;;34.30;69.20;;;;;;1878248;76;21143;-76
2023/05/01 07:19:20;;;;;;;8.70;6.90;;;34.20;70.00;;;;;;1876332;76;21179;-75
2023/05/01 07:21:51;;;;;;;9.35;6.47;;;34.20;69.10;;;;;;1877373;76;21705;-74
2023/05/01 07:24:22;;;;;;;7.30;6.53;;;34.10;69.30;;;;;;1882923;76;21155;-75
2023/05/01 07:26:55;;;;;;;9.85;7.28;;;34.10;70.00;;;;;;1883301;76;21148;-73
2023/05/01 07:29:26;;;;;;;9.15;7.17;;;34.10;70.00;;;;;;1874896;76;21168;-75
2023/05/01 07:31:58;;;;;;;8.88;7.12;;;34.20;69.30;;;;;;1879392;75;21192;-76
2023/05/01 07:34:29;;;;;;;9.05;6.85;;;34.20;69.50;;;;;;1882997;76;21265;-76
2023/05/01 07:37:01;;;;;;;7.33;6.40;;;34.20;69.10;;;;;;1873228;76;21147;-75
2023/05/01 07:39:32;;;;;;;10.35;6.50;;;34.30;68.40;;;;;;1879996;75;21120;-72
2023/05/01 07:42:03;;;;;;;8.48;7.03;;;34.20;68.50;;;;;;1882107;76;21459;-74
2023/05/01 07:44:35;;;;;;;9.53;7.25;;;34.10;68.90;;;;;;1878838;76;21123;-74
2023/05/01 07:47:07;;;;;;;10.15;6.85;;;34.10;68.80;;;;;;1883354;76;21083;-76
2023/05/01 07:49:38;;;;;;;7.95;6.85;;;34.00;69.50;;;;;;1877237;76;21103;-75
2023/05/01 07:52:09;;;;;;;7.85;6.95;;;34.00;68.80;;;;;;1837832;77;21679;-76
2023/05/01 07:54:41;;;;;;;8.90;6.95;;;34.00;69.40;;;;;;1877458;76;21127;-74
2023/05/01 07:57:12;;;;;;;9.03;7.30;;;34.00;70.80;;;;;;1884141;76;21126;-75
2023/05/01 07:59:43;;;;;;;8.48;6.67;;;34.10;69.40;;;;;;1874160;76;21245;-76
2023/05/01 08:02:16;;;;;;;10.50;7.75;;;34.10;69.40;;;;;;1877468;76;21272;-76
2023/05/01 08:04:47;;;;;;;9.93;7.53;;;34.00;69.90;;;;;;1879238;76;21223;-75
2023/05/01 08:07:18;;;;;;;9.83;7.65;;;34.10;71.10;;;;;;1875285;76;21181;-75
2023/05/01 08:09:50;;;;;;;8.10;7.12;;;34.10;70.90;;;;;;1879736;75;21154;-75
2023/05/01 08:12:22;;;;;;;8.75;7.72;;;34.10;69.20;;;;;;1886540;76;21655;-75
2023/05/01 08:14:53;;;;;;;9.38;7.62;;;34.10;69.40;;;;;;1887511;76;21176;-74
2023/05/01 08:17:25;;;;;;;9.33;7.55;;;34.10;70.00;;;;;;1885964;76;21128;-75
2023/05/01 08:20:00;;;;;;;12.35;7.87;;;34.10;69.70;;;;;;1892549;75;21098;-73
2023/05/01 08:22:32;;;;;;;9.85;7.30;;;34.10;69.00;;;;;;1890232;76;21240;-75
2023/05/01 08:25:03;;;;;;;8.28;7.35;;;34.10;69.40;;;;;;1890207;76;21622;-75
2023/05/01 08:27:35;;;;;;;12.65;7.78;;;34.10;70.30;;;;;;1891338;76;21218;-74
2023/05/01 08:30:07;;;;;;;9.75;7.50;;;34.10;69.80;;;;;;1893069;76;21131;-74
2023/05/01 08:32:38;;;;;;;10.58;7.62;;;34.10;69.50;;;;;;1877196;76;21146;-74
2023/05/01 08:35:10;;;;;;;8.85;7.10;;;34.10;69.20;;;;;;1897709;75;21224;-74
2023/05/01 08:37:42;;;;;;;10.18;8.03;;;34.20;69.50;;;;;;1870339;75;21722;-75
2023/05/01 08:40:14;;;;;;;10.03;7.40;;;34.20;69.30;;;;;;1861630;75;21576;-74
2023/05/01 08:42:46;;;;;;;8.58;7.45;;;34.20;67.80;;;;;;1809366;79;21821;-74
2023/05/01 08:45:20;;;;;;;9.18;7.35;;;34.20;67.90;;;;;;1847931;77;21143;-74
2023/05/01 08:47:53;;;;;;;11.20;7.60;;;34.10;68.10;;;;;;1874951;76;21066;-76
2023/05/01 08:50:25;;;;;;;10.13;7.72;;;34.10;68.00;;;;;;1883247;76;21753;-76
2023/05/01 08:52:58;;;;;;;8.70;6.95;;;34.10;67.40;;;;;;1884240;76;21107;-76
2023/05/01 08:55:31;;;;;;;12.93;8.28;;;34.10;68.00;;;;;;1878869;75;21147;-73
2023/05/01 08:58:05;;;;;;;8.83;7.12;;;34.10;68.80;;;;;;1890627;76;21152;-75
2023/05/01 09:00:37;;;;;;;12.18;8.78;;;34.10;68.60;;;;;;1890337;75;22185;-75
2023/05/01 09:03:12;;;;;;;13.55;9.05;;;34.10;69.00;;;;;;1863029;76;21554;-73
2023/05/01 09:05:44;;;;;;;15.10;11.48;;;34.10;67.50;;;;;;1808777;78;21135;-75
2023/05/01 09:08:21;;;;;;;13.15;9.73;;;34.10;67.10;;;;;;1873260;75;21076;-75
2023/05/01 09:11:12;;;;;;;11.45;8.63;;;34.10;67.00;;;;;;1867387;75;21119;-72
2023/05/01 09:14:08;;;;;;;11.85;8.03;;;34.10;67.20;;;;;;1865516;76;22425;-74
2023/05/01 09:16:41;;;;;;;11.83;7.50;;;34.20;66.50;;;;;;1862495;75;21934;-75
2023/05/01 09:19:16;;;;;;;9.15;7.70;;;34.10;66.40;;;;;;1862916;75;21274;-75
2023/05/01 09:21:48;;;;;;;10.45;7.70;;;34.10;67.60;;;;;;1869039;75;21120;-74
2023/05/01 09:24:20;;;;;;;11.73;7.87;;;34.10;67.90;;;;;;1817881;76;21245;-76
2023/05/01 09:26:57;;;;;;;10.40;7.80;;;34.00;67.90;;;;;;1864507;76;21092;-75
2023/05/01 09:29:49;;;;;;;11.83;7.90;;;34.00;68.40;;;;;;1866154;76;21121;-75
2023/05/01 09:32:27;;;;;;;9.10;7.37;;;34.00;68.80;;;;;;1861564;76;21859;-74
2023/05/01 09:35:12;;;;;;;9.48;7.58;;;33.90;69.00;;;;;;1863590;76;21127;-75
2023/05/01 09:37:44;;;;;;;11.57;8.03;;;33.90;69.10;;;;;;1871701;75;21131;-76
2023/05/01 09:40:16;;;;;;;9.93;7.33;;;33.90;68.60;;;;;;1868239;75;21327;-74
2023/05/01 09:42:52;;;;;;;11.33;7.78;;;33.90;69.00;;;;;;1866526;75;21608;-74
2023/05/01 09:45:23;;;;;;;10.25;8.33;;;33.90;68.60;;;;;;1869635;76;21613;-75
2023/05/01 09:47:57;;;;;;;9.10;7.70;;;33.80;68.80;;;;;;1863879;76;21054;-74
2023/05/01 09:50:33;;;;;;;10.78;7.58;;;33.80;68.70;;;;;;1856628;76;21136;-74
2023/05/01 09:53:05;;;;;;;10.08;8.03;;;33.80;68.30;;;;;;1857075;76;21659;-75
2023/05/01 09:55:36;;;;;;;10.03;7.60;;;33.80;68.90;;;;;;1860862;76;21514;-74
2023/05/01 09:58:08;;;;;;;9.03;7.67;;;33.80;69.30;;;;;;1875139;75;21043;-75
2023/05/01 10:00:50;;;;;;;9.48;7.67;;;33.70;69.50;;;;;;1872566;76;21184;-74
2023/05/01 10:03:22;;;;;;;11.28;7.75;;;33.70;69.80;;;;;;1829172;78;21139;-73
2023/05/01 10:05:55;;;;;;;10.23;8.10;;;33.70;70.00;;;;;;1885689;76;21595;-75
2023/05/01 10:08:26;;;;;;;9.63;7.67;;;33.70;69.60;;;;;;1883927;76;21250;-75
2023/05/01 10:11:07;;;;;;;10.55;8.03;;;33.60;69.30;;;;;;1882720;75;21138;-75
2023/05/01 10:13:43;;;;;;;9.37;7.80;;;33.60;69.70;;;;;;1865352;75;21135;-75
2023/05/01 10:16:30;;;;;;;8.33;7.42;;;33.70;69.90;;;;;;1876500;75;21568;-74
2023/05/01 10:19:04;;;;;;;10.38;8.03;;;33.60;69.30;;;;;;1882535;76;21119;-74
2023/05/01 10:21:49;;;;;;;13.90;8.03;;;33.60;68.70;;;;;;1866928;76;21113;-73
2023/05/01 10:24:21;;;;;;;11.35;8.58;;;33.60;69.20;;;;;;1881502;76;21141;-76
2023/05/01 10:26:52;;;;;;;11.85;8.35;;;33.60;69.40;;;;;;1885233;75;21429;-76
2023/05/01 10:29:25;;;;;;;12.13;8.95;;;33.50;69.40;;;;;;1879964;76;21070;-75
2023/05/01 10:31:57;;;;;;;11.25;8.90;;;33.50;69.40;;;;;;1867362;76;21071;-74
2023/05/01 10:34:30;;;;;;;10.82;8.68;;;33.50;69.70;;;;;;1879859;76;21594;-74
2023/05/01 10:37:13;;;;;;;10.72;7.97;;;33.50;69.60;;;;;;1884754;75;21076;-75
2023/05/01 10:39:45;;;;;;;10.03;8.30;;;33.40;69.70;;;;;;1878613;76;21204;-76
2023/05/01 10:42:17;;;;;;;11.50;7.80;;;33.40;69.70;;;;;;1881282;76;21580;-76
2023/05/01 10:44:48;;;;;;;9.58;8.50;;;33.40;69.70;;;;;;1883612;76;21128;-74
2023/05/01 10:47:30;;;;;;;10.90;8.38;;;33.40;69.10;;;;;;1868335;76;21134;-75
2023/05/01 10:50:14;;;;;;;10.15;8.30;;;33.40;69.50;;;;;;1873162;76;21105;-75
2023/05/01 10:53:15;;;;;;;11.70;10.50;;;33.30;68.60;;;;;;1887017;75;21172;-74
2023/05/01 10:55:48;;;;;;;9.73;8.18;;;33.30;68.50;;;;;;1856493;77;21666;-74
2023/05/01 10:58:50;;;;;;;9.85;8.10;;;33.30;68.90;;;;;;1878708;76;21125;-74
2023/05/01 11:01:39;;;;;;;12.25;8.93;;;33.30;69.20;;;;;;1871564;76;21648;-75
2023/05/01 11:04:21;;;;;;;11.10;8.55;;;33.30;68.40;;;;;;1871909;75;21177;-75
2023/05/01 11:07:07;;;;;;;12.85;10.35;;;33.30;68.40;;;;;;1881280;75;21712;-73
2023/05/01 11:09:41;;;;;;;12.40;9.33;;;33.20;68.60;;;;;;1880116;75;21180;-77
2023/05/01 11:12:18;;;;;;;13.00;8.68;;;33.20;69.30;;;;;;1883680;76;21150;-75
2023/05/01 11:15:02;;;;;;;;;;;33.20;69.00;;;;;;1889045;75;21157;-75
2023/05/01 11:17:45;;;;;;;13.13;9.30;;;33.20;69.90;;;;;;1887409;75;20253;-76
2023/05/01 11:20:28;;;;;;;11.00;7.97;;;33.20;69.00;;;;;;1873886;76;21109;-74
2023/05/01 11:23:00;;;;;;;11.05;8.38;;;33.20;68.80;;;;;;1851292;76;21136;-75
2023/05/01 11:25:35;;;;;;;13.90;9.20;;;33.20;68.80;;;;;;1896272;75;21611;-75
2023/05/01 11:28:08;;;;;;;10.25;8.38;;;33.20;68.90;;;;;;1884311;76;21637;-77
2023/05/01 11:30:40;;;;;;;10.80;8.50;;;33.10;69.00;;;;;;1863049;76;21122;-75
2023/05/01 11:33:12;;;;;;;11.53;8.53;;;33.10;69.00;;;;;;1873969;76;21621;-74
2023/05/01 11:35:44;;;;;;;10.03;8.38;;;33.10;68.90;;;;;;1886606;75;21710;-74
2023/05/01 11:38:18;;;;;;;10.40;8.18;;;33.10;68.90;;;;;;1887062;75;21591;-76
2023/05/01 11:40:58;;;;;;;11.28;8.20;;;33.10;68.90;;;;;;1884928;76;22088;-75
2023/05/01 11:43:29;;;;;;;9.50;7.95;;;33.00;70.10;;;;;;1871761;76;21643;-75
2023/05/01 11:46:03;;;;;;;13.70;9.15;;;33.00;69.10;;;;;;1880870;75;21585;-76
2023/05/01 11:48:35;;;;;;;14.58;9.63;;;33.00;69.10;;;;;;1882810;76;21212;-75
2023/05/01 11:51:15;;;;;;;11.20;9.03;;;33.00;69.40;;;;;;1873468;75;21174;-74
2023/05/01 11:54:14;;;;;;;13.55;10.05;;;33.00;69.40;;;;;;1866251;76;21205;-74
2023/05/01 11:56:46;;;;;;;16.48;11.05;;;33.00;69.50;;;;;;1879319;75;21080;-74
2023/05/01 11:59:38;;;;;;;12.82;11.08;;;32.90;69.80;;;;;;1882967;75;21188;-74
2023/05/01 12:02:12;;;;;;;11.88;9.55;;;32.90;70.20;;;;;;1890689;75;21162;-75
2023/05/01 12:04:43;;;;;;;14.40;10.78;;;32.90;70.00;;;;;;1880741;76;21068;-75
2023/05/01 12:07:24;;;;;;;14.20;10.30;;;32.90;70.10;;;;;;1853981;76;21115;-76
2023/05/01 12:09:55;;;;;;;13.58;10.80;;;32.90;70.10;;;;;;1880725;76;21173;-75
2023/05/01 12:12:27;;;;;;;12.55;10.80;;;32.90;70.20;;;;;;1873645;76;21255;-72
2023/05/01 12:14:59;;;;;;;14.73;10.78;;;32.90;70.80;;;;;;1880887;75;21163;-74
2023/05/01 12:17:31;;;;;;;15.10;12.33;;;32.90;71.10;;;;;;1876200;75;21197;-75
2023/05/01 12:20:03;;;;;;;17.30;11.88;;;32.90;71.40;;;;;;1884907;75;21678;-74
2023/05/01 12:22:34;;;;;;;14.35;10.68;;;32.80;72.70;;;;;;1876504;75;21685;-77
2023/05/01 12:25:07;;;;;;;14.40;11.08;;;32.80;73.10;;;;;;1894715;75;21123;-74
2023/05/01 12:27:45;;;;;;;15.10;10.90;;;32.80;73.50;;;;;;1882348;75;21182;-74
2023/05/01 12:30:19;;;;;;;13.80;11.45;;;32.70;74.80;;;;;;1828574;78;21138;-73
2023/05/01 12:32:52;;;;;;;13.32;11.48;;;32.80;74.20;;;;;;1826656;78;21234;-74
2023/05/01 12:35:32;;;;;;;16.90;11.38;;;32.70;74.50;;;;;;1822462;78;21155;-75
2023/05/01 12:38:14;;;;;;;15.75;10.60;;;32.70;74.80;;;;;;1889168;75;21135;-74
2023/05/01 12:40:56;;;;;;;15.40;10.28;;;32.70;75.00;;;;;;1890838;75;21121;-76
2023/05/01 12:43:38;;;;;;;14.73;10.88;;;32.70;75.40;;;;;;1880317;76;21206;-77
2023/05/01 12:46:13;;;;;;;15.60;10.48;;;32.60;75.40;;;;;;1879284;75;21065;-75
2023/05/01 12:48:45;;;;;;;15.23;10.28;;;32.60;75.50;;;;;;1870640;76;21076;-77
2023/05/01 12:51:21;;;;;;;16.27;11.48;;;32.60;75.70;;;;;;1880206;75;21579;-77
2023/05/01 12:53:57;;;;;;;16.15;12.20;;;32.50;75.80;;;;;;1880852;76;21122;-77
2023/05/01 12:56:29;;;;;;;20.10;12.73;;;32.50;76.10;;;;;;1871147;76;22451;-77
2023/05/01 12:59:00;;;;;;;15.83;11.68;;;32.50;76.20;;;;;;1878843;75;21666;-74
2023/05/01 13:01:32;;;;;;;16.70;12.15;;;32.40;76.10;;;;;;1874345;76;21160;-77
2023/05/01 13:04:06;;;;;;;16.65;11.60;;;32.40;76.20;;;;;;1869050;76;21175;-74
2023/05/01 13:06:42;;;;;;;14.65;11.75;;;32.40;76.30;;;;;;1866999;76;21182;-76
2023/05/01 13:09:26;;;;;;;15.48;11.57;;;32.40;76.50;;;;;;1835252;78;21211;-86
2023/05/01 13:12:07;;;;;;;15.18;11.10;;;32.40;76.60;;;;;;1875398;76;21646;-87
2023/05/01 13:15:06;;;;;;;14.63;11.05;;;32.30;76.50;;;;;;1865653;76;21143;-86
2023/05/01 13:17:37;;;;;;;16.75;10.93;;;32.30;76.70;;;;;;1872448;76;21494;-86